sensor_id;sensor_type;location;lat;lon;timestamp;pressure;altitude;pressure_sealevel;temperature;humidity
67654;BME280;54791;52.364;4.648;2022-11-11T13:11:20;102936.97;;;11.50;100.00
67654;BME280;54791;52.364;4.648;2022-11-11T13:14:26;102944.97;;;11.47;100.00
67654;BME280;54791;52.364;4.648;2022-11-11T13:16:45;102937.75;;;11.65;100.00
67654;BME280;54791;52.364;4.648;2022-11-11T13:19:40;102939.97;;;12.08;100.00
67654;BME280;54791;52.364;4.648;2022-11-11T13:24:39;102944.16;;;12.95;100.00
67654;BME280;54791;52.364;4.648;2022-11-11T13:32:51;102949.34;;;13.04;100.00
67654;BME280;54791;52.364;4.648;2022-11-11T13:35:40;102940.97;;;12.68;100.00
67654;BME280;54791;52.364;4.648;2022-11-11T13:38:21;102945.75;;;13.61;100.00
67654;BME280;54791;52.364;4.648;2022-11-11T13:40:51;102946.22;;;12.74;100.00
67654;BME280;54791;52.364;4.648;2022-11-11T13:43:33;102940.69;;;12.90;100.00
67654;BME280;54791;52.364;4.648;2022-11-11T13:46:03;102939.75;;;12.92;100.00
67654;BME280;54791;52.364;4.648;2022-11-11T13:48:45;102942.78;;;13.25;100.00
67654;BME280;54791;52.364;4.648;2022-11-11T13:51:46;102935.53;;;13.37;100.00
67654;BME280;54791;52.364;4.648;2022-11-11T13:54:34;102944.44;;;13.32;100.00
67654;BME280;54791;52.364;4.648;2022-11-11T13:57:17;102952.72;;;13.15;100.00
67654;BME280;54791;52.364;4.648;2022-11-11T14:05:14;102945.72;;;13.10;100.00
67654;BME280;54791;52.364;4.648;2022-11-11T14:15:36;102946.75;;;12.98;100.00
67654;BME280;54791;52.364;4.648;2022-11-11T14:18:08;102952.53;;;13.26;100.00
67654;BME280;54791;52.364;4.648;2022-11-11T14:20:37;102942.84;;;13.22;100.00
67654;BME280;54791;52.364;4.648;2022-11-11T14:28:59;102951.00;;;12.50;100.00
67654;BME280;54791;52.364;4.648;2022-11-11T14:31:35;102947.09;;;12.76;100.00
67654;BME280;54791;52.364;4.648;2022-11-11T14:34:50;102950.69;;;12.72;100.00
67654;BME280;54791;52.364;4.648;2022-11-11T14:37:08;102949.91;;;12.64;100.00
67654;BME280;54791;52.364;4.648;2022-11-11T14:39:43;102952.69;;;12.55;100.00
67654;BME280;54791;52.364;4.648;2022-11-11T14:45:50;102943.41;;;12.16;100.00
67654;BME280;54791;52.364;4.648;2022-11-11T14:47:51;102944.13;;;12.29;100.00
67654;BME280;54791;52.364;4.648;2022-11-11T14:53:16;102953.13;;;12.20;100.00
67654;BME280;54791;52.364;4.648;2022-11-11T14:55:50;102944.50;;;12.00;100.00
67654;BME280;54791;52.364;4.648;2022-11-11T14:58:19;102940.88;;;12.06;100.00
67654;BME280;54791;52.364;4.648;2022-11-11T15:01:22;102942.66;;;12.07;100.00
67654;BME280;54791;52.364;4.648;2022-11-11T15:03:40;102956.91;;;11.98;100.00
67654;BME280;54791;52.364;4.648;2022-11-11T15:11:24;102937.72;;;11.66;100.00
67654;BME280;54791;52.364;4.648;2022-11-11T15:17:29;102939.56;;;11.60;100.00
67654;BME280;54791;52.364;4.648;2022-11-11T15:39:09;102940.63;;;11.37;100.00
67654;BME280;54791;52.364;4.648;2022-11-11T15:41:39;102933.59;;;11.33;100.00
67654;BME280;54791;52.364;4.648;2022-11-11T15:44:31;102939.88;;;11.21;100.00
67654;BME280;54791;52.364;4.648;2022-11-11T15:46:54;102948.72;;;11.21;100.00
67654;BME280;54791;52.364;4.648;2022-11-11T15:52:30;102950.56;;;11.15;100.00
67654;BME280;54791;52.364;4.648;2022-11-11T15:54:57;102953.22;;;11.10;100.00
67654;BME280;54791;52.364;4.648;2022-11-11T15:57:34;102953.16;;;11.18;100.00
67654;BME280;54791;52.364;4.648;2022-11-11T16:00:03;102962.03;;;11.15;100.00
67654;BME280;54791;52.364;4.648;2022-11-11T16:02:43;102960.34;;;11.08;100.00
67654;BME280;54791;52.364;4.648;2022-11-11T16:05:29;102968.28;;;11.10;100.00
67654;BME280;54791;52.364;4.648;2022-11-11T16:08:00;102969.13;;;11.15;100.00
67654;BME280;54791;52.364;4.648;2022-11-11T16:10:31;102979.00;;;10.99;100.00
67654;BME280;54791;52.364;4.648;2022-11-11T16:15:44;102971.09;;;10.86;100.00
67654;BME280;54791;52.364;4.648;2022-11-11T16:18:25;102972.00;;;10.81;100.00
67654;BME280;54791;52.364;4.648;2022-11-11T16:21:23;102980.88;;;10.75;100.00
67654;BME280;54791;52.364;4.648;2022-11-11T16:23:51;102973.75;;;10.80;100.00
67654;BME280;54791;52.364;4.648;2022-11-11T16:26:18;102974.66;;;10.78;100.00
67654;BME280;54791;52.364;4.648;2022-11-11T16:28:47;102973.84;;;10.63;100.00
67654;BME280;54791;52.364;4.648;2022-11-11T16:31:36;102977.44;;;10.58;100.00
67654;BME280;54791;52.364;4.648;2022-11-11T16:37:07;102976.50;;;10.68;100.00
67654;BME280;54791;52.364;4.648;2022-11-11T16:39:34;102980.03;;;10.64;100.00
67654;BME280;54791;52.364;4.648;2022-11-11T16:42:06;102975.63;;;10.63;100.00
67654;BME280;54791;52.364;4.648;2022-11-11T16:44:48;102975.72;;;10.47;100.00
67654;BME280;54791;52.364;4.648;2022-11-11T16:47:45;102970.41;;;10.43;100.00
67654;BME280;54791;52.364;4.648;2022-11-11T16:52:51;102973.97;;;10.23;100.00
67654;BME280;54791;52.364;4.648;2022-11-11T16:55:27;102978.38;;;10.32;100.00
67654;BME280;54791;52.364;4.648;2022-11-11T16:57:59;102976.63;;;10.37;100.00
67654;BME280;54791;52.364;4.648;2022-11-11T17:00:27;102978.34;;;10.35;100.00
67654;BME280;54791;52.364;4.648;2022-11-11T17:03:14;102982.78;;;10.30;100.00
67654;BME280;54791;52.364;4.648;2022-11-11T17:06:01;102978.38;;;10.30;100.00
67654;BME280;54791;52.364;4.648;2022-11-11T17:08:41;102976.63;;;10.25;100.00
67654;BME280;54791;52.364;4.648;2022-11-11T17:11:08;102975.75;;;10.26;100.00
67654;BME280;54791;52.364;4.648;2022-11-11T17:13:35;102979.28;;;10.29;100.00
67654;BME280;54791;52.364;4.648;2022-11-11T17:16:05;102980.13;;;10.30;100.00
67654;BME280;54791;52.364;4.648;2022-11-11T17:18:36;102971.34;;;10.18;100.00
67654;BME280;54791;52.364;4.648;2022-11-11T17:21:03;102973.09;;;10.19;100.00
67654;BME280;54791;52.364;4.648;2022-11-11T17:23:29;102976.59;;;10.32;100.00
67654;BME280;54791;52.364;4.648;2022-11-11T17:25:56;102973.97;;;10.23;100.00
67654;BME280;54791;52.364;4.648;2022-11-11T17:28:24;102974.88;;;10.20;100.00
67654;BME280;54791;52.364;4.648;2022-11-11T17:30:50;102983.72;;;10.24;100.00
67654;BME280;54791;52.364;4.648;2022-11-11T17:33:16;102974.00;;;10.21;100.00
67654;BME280;54791;52.364;4.648;2022-11-11T17:35:52;102984.63;;;10.14;100.00
67654;BME280;54791;52.364;4.648;2022-11-11T17:38:18;102984.63;;;10.06;100.00
67654;BME280;54791;52.364;4.648;2022-11-11T17:40:45;102982.00;;;10.06;100.00
67654;BME280;54791;52.364;4.648;2022-11-11T17:43:12;102984.63;;;10.09;100.00
67654;BME280;54791;52.364;4.648;2022-11-11T17:45:37;102993.47;;;10.06;100.00
67654;BME280;54791;52.364;4.648;2022-11-11T17:48:04;102989.03;;;10.12;100.00
67654;BME280;54791;52.364;4.648;2022-11-11T17:50:30;102993.44;;;10.14;100.00
67654;BME280;54791;52.364;4.648;2022-11-11T17:52:56;103000.50;;;10.15;100.00
67654;BME280;54791;52.364;4.648;2022-11-11T17:55:22;102992.56;;;10.09;100.00
67654;BME280;54791;52.364;4.648;2022-11-11T17:57:49;102988.19;;;10.02;100.00
67654;BME280;54791;52.364;4.648;2022-11-11T18:00:16;102980.25;;;9.96;100.00
67654;BME280;54791;52.364;4.648;2022-11-11T18:02:42;102991.75;;;9.90;100.00
67654;BME280;54791;52.364;4.648;2022-11-11T18:05:08;102995.22;;;9.95;100.00
67654;BME280;54791;52.364;4.648;2022-11-11T18:07:34;103005.88;;;9.97;100.00
67654;BME280;54791;52.364;4.648;2022-11-11T18:10:00;103004.97;;;9.85;100.00
67654;BME280;54791;52.364;4.648;2022-11-11T18:12:28;103011.19;;;9.87;100.00
67654;BME280;54791;52.364;4.648;2022-11-11T18:14:54;103013.81;;;9.87;100.00
67654;BME280;54791;52.364;4.648;2022-11-11T18:17:19;103017.34;;;9.86;100.00
67654;BME280;54791;52.364;4.648;2022-11-11T18:19:45;103009.38;;;9.89;100.00
67654;BME280;54791;52.364;4.648;2022-11-11T18:22:11;103009.41;;;9.80;100.00
67654;BME280;54791;52.364;4.648;2022-11-11T18:24:38;103012.03;;;9.76;100.00
67654;BME280;54791;52.364;4.648;2022-11-11T18:27:04;103012.03;;;9.82;100.00
67654;BME280;54791;52.364;4.648;2022-11-11T18:29:30;103014.69;;;10.02;100.00
67654;BME280;54791;52.364;4.648;2022-11-11T18:31:56;103016.44;;;10.06;100.00
67654;BME280;54791;52.364;4.648;2022-11-11T18:34:22;103016.44;;;10.09;100.00
67654;BME280;54791;52.364;4.648;2022-11-11T18:36:50;103030.59;;;9.96;100.00
67654;BME280;54791;52.364;4.648;2022-11-11T18:39:16;103035.00;;;9.90;100.00
67654;BME280;54791;52.364;4.648;2022-11-11T18:41:42;103037.66;;;9.83;100.00
67654;BME280;54791;52.364;4.648;2022-11-11T18:44:08;103031.47;;;9.71;100.00
67654;BME280;54791;52.364;4.648;2022-11-11T18:46:34;103035.03;;;9.66;100.00
67654;BME280;54791;52.364;4.648;2022-11-11T18:49:02;103035.88;;;9.68;100.00
67654;BME280;54791;52.364;4.648;2022-11-11T18:51:29;103033.25;;;9.69;100.00
67654;BME280;54791;52.364;4.648;2022-11-11T18:53:56;103042.06;;;9.73;100.00
67654;BME280;54791;52.364;4.648;2022-11-11T18:56:24;103049.13;;;9.74;100.00
67654;BME280;54791;52.364;4.648;2022-11-11T18:58:55;103054.44;;;9.74;100.00
67654;BME280;54791;52.364;4.648;2022-11-11T19:01:24;103044.72;;;9.68;100.00
67654;BME280;54791;52.364;4.648;2022-11-11T19:03:53;103044.72;;;9.61;100.00
67654;BME280;54791;52.364;4.648;2022-11-11T19:06:20;103051.78;;;9.49;100.00
67654;BME280;54791;52.364;4.648;2022-11-11T19:08:47;103056.19;;;9.49;100.00
67654;BME280;54791;52.364;4.648;2022-11-11T19:11:13;103058.84;;;9.41;100.00
67654;BME280;54791;52.364;4.648;2022-11-11T19:13:39;103058.81;;;9.35;100.00
67654;BME280;54791;52.364;4.648;2022-11-11T19:16:08;103061.44;;;9.24;100.00
67654;BME280;54791;52.364;4.648;2022-11-11T19:18:35;103055.28;;;9.30;100.00
67654;BME280;54791;52.364;4.648;2022-11-11T19:21:07;103055.25;;;9.20;100.00
67654;BME280;54791;52.364;4.648;2022-11-11T19:23:33;103048.19;;;9.19;100.00
67654;BME280;54791;52.364;4.648;2022-11-11T19:25:59;103042.91;;;9.18;100.00
67654;BME280;54791;52.364;4.648;2022-11-11T19:28:25;103051.72;;;9.15;100.00
67654;BME280;54791;52.364;4.648;2022-11-11T19:30:51;103051.72;;;9.17;100.00
67654;BME280;54791;52.364;4.648;2022-11-11T19:33:17;103061.44;;;9.18;100.00
67654;BME280;54791;52.364;4.648;2022-11-11T19:35:42;103063.19;;;9.19;100.00
67654;BME280;54791;52.364;4.648;2022-11-11T19:38:08;103051.72;;;9.20;100.00
67654;BME280;54791;52.364;4.648;2022-11-11T19:40:36;103052.53;;;9.00;100.00
67654;BME280;54791;52.364;4.648;2022-11-11T19:43:02;103056.03;;;8.88;100.00
67654;BME280;54791;52.364;4.648;2022-11-11T19:45:28;103055.16;;;8.93;100.00
67654;BME280;54791;52.364;4.648;2022-11-11T19:47:53;103059.59;;;9.00;100.00
67654;BME280;54791;52.364;4.648;2022-11-11T19:50:19;103059.59;;;9.00;100.00
67654;BME280;54791;52.364;4.648;2022-11-11T19:52:45;103061.38;;;9.02;100.00
67654;BME280;54791;52.364;4.648;2022-11-11T19:55:11;103049.00;;;8.94;100.00
67654;BME280;54791;52.364;4.648;2022-11-11T19:57:37;103057.78;;;8.82;100.00
67654;BME280;54791;52.364;4.648;2022-11-11T20:00:05;103056.81;;;8.66;100.00
67654;BME280;54791;52.364;4.648;2022-11-11T20:02:33;103062.13;;;8.70;100.00
67654;BME280;54791;52.364;4.648;2022-11-11T20:04:58;103060.41;;;8.83;100.00
67654;BME280;54791;52.364;4.648;2022-11-11T20:07:24;103070.16;;;8.94;100.00
67654;BME280;54791;52.364;4.648;2022-11-11T20:09:50;103081.66;;;8.96;100.00
67654;BME280;54791;52.364;4.648;2022-11-11T20:12:15;103074.63;;;9.01;100.00
67654;BME280;54791;52.364;4.648;2022-11-11T20:14:41;103071.03;;;8.91;100.00
67654;BME280;54791;52.364;4.648;2022-11-11T20:17:07;103069.19;;;8.74;100.00
67654;BME280;54791;52.364;4.648;2022-11-11T20:19:33;103070.06;;;8.73;100.00
67654;BME280;54791;52.364;4.648;2022-11-11T20:21:59;103071.88;;;8.79;100.00
67654;BME280;54791;52.364;4.648;2022-11-11T20:24:27;103076.28;;;8.80;100.00
67654;BME280;54791;52.364;4.648;2022-11-11T20:26:53;103080.72;;;8.84;100.00
67654;BME280;54791;52.364;4.648;2022-11-11T20:29:19;103082.53;;;8.93;100.00
67654;BME280;54791;52.364;4.648;2022-11-11T20:31:47;103083.38;;;8.90;100.00
67654;BME280;54791;52.364;4.648;2022-11-11T20:34:12;103085.19;;;9.01;100.00
67654;BME280;54791;52.364;4.648;2022-11-11T20:36:38;103089.53;;;8.83;100.00
67654;BME280;54791;52.364;4.648;2022-11-11T20:39:04;103083.25;;;8.64;100.00
67654;BME280;54791;52.364;4.648;2022-11-11T20:41:30;103076.19;;;8.60;100.00
67654;BME280;54791;52.364;4.648;2022-11-11T20:43:56;103090.31;;;8.64;100.00
67654;BME280;54791;52.364;4.648;2022-11-11T20:46:22;103093.00;;;8.73;100.00
67654;BME280;54791;52.364;4.648;2022-11-11T20:48:48;103092.13;;;8.72;100.00
67654;BME280;54791;52.364;4.648;2022-11-11T20:51:20;103087.69;;;8.74;100.00
67654;BME280;54791;52.364;4.648;2022-11-11T20:53:51;103085.06;;;8.73;100.00
67654;BME280;54791;52.364;4.648;2022-11-11T20:56:17;103084.97;;;8.61;100.00
67654;BME280;54791;52.364;4.648;2022-11-11T20:58:43;103087.63;;;8.61;100.00
67654;BME280;54791;52.364;4.648;2022-11-11T21:01:21;103103.53;;;8.64;100.00
67654;BME280;54791;52.364;4.648;2022-11-11T21:03:52;103107.94;;;8.65;100.00
67654;BME280;54791;52.364;4.648;2022-11-11T21:06:19;103105.31;;;8.65;100.00
67654;BME280;54791;52.364;4.648;2022-11-11T21:08:46;103100.88;;;8.65;100.00
67654;BME280;54791;52.364;4.648;2022-11-11T21:11:14;103103.50;;;8.57;100.00
67654;BME280;54791;52.364;4.648;2022-11-11T21:13:41;103108.81;;;8.62;100.00
67654;BME280;54791;52.364;4.648;2022-11-11T21:16:11;103107.00;;;8.50;100.00
67654;BME280;54791;52.364;4.648;2022-11-11T21:18:37;103117.53;;;8.49;100.00
67654;BME280;54791;52.364;4.648;2022-11-11T21:21:15;103110.50;;;8.51;100.00
67654;BME280;54791;52.364;4.648;2022-11-11T21:23:41;103121.09;;;8.52;100.00
67654;BME280;54791;52.364;4.648;2022-11-11T21:26:10;103111.41;;;8.53;100.00
67654;BME280;54791;52.364;4.648;2022-11-11T21:28:38;103114.88;;;8.49;100.00
67654;BME280;54791;52.364;4.648;2022-11-11T21:31:09;103101.59;;;8.41;100.00
67654;BME280;54791;52.364;4.648;2022-11-11T21:33:37;103120.03;;;8.32;100.00
67654;BME280;54791;52.364;4.648;2022-11-11T21:36:05;103117.38;;;8.27;100.00
67654;BME280;54791;52.364;4.648;2022-11-11T21:38:36;103125.25;;;8.19;100.00
67654;BME280;54791;52.364;4.648;2022-11-11T21:41:05;103123.41;;;8.12;100.00
67654;BME280;54791;52.364;4.648;2022-11-11T21:43:31;103126.84;;;8.05;100.00
67654;BME280;54791;52.364;4.648;2022-11-11T21:46:01;103125.13;;;8.10;100.00
67654;BME280;54791;52.364;4.648;2022-11-11T21:48:28;103125.13;;;8.10;100.00
67654;BME280;54791;52.364;4.648;2022-11-11T21:51:06;103127.81;;;8.12;100.00
67654;BME280;54791;52.364;4.648;2022-11-11T21:53:33;103122.56;;;8.18;100.00
67654;BME280;54791;52.364;4.648;2022-11-11T21:56:01;103117.25;;;8.12;100.00
67654;BME280;54791;52.364;4.648;2022-11-11T21:58:28;103126.97;;;8.14;100.00
67654;BME280;54791;52.364;4.648;2022-11-11T22:00:54;103125.19;;;8.13;100.00
67654;BME280;54791;52.364;4.648;2022-11-11T22:03:20;103138.41;;;8.18;100.00
67654;BME280;54791;52.364;4.648;2022-11-11T22:05:45;103136.66;;;8.17;100.00
67654;BME280;54791;52.364;4.648;2022-11-11T22:08:11;103138.41;;;8.15;100.00
67654;BME280;54791;52.364;4.648;2022-11-11T22:10:37;103137.41;;;7.99;100.00
67654;BME280;54791;52.364;4.648;2022-11-11T22:13:02;103125.84;;;7.89;100.00
67654;BME280;54791;52.364;4.648;2022-11-11T22:15:28;103133.84;;;7.97;100.00
67654;BME280;54791;52.364;4.648;2022-11-11T22:17:54;103128.56;;;8.00;100.00
67654;BME280;54791;52.364;4.648;2022-11-11T22:20:20;103128.69;;;8.09;100.00
67654;BME280;54791;52.364;4.648;2022-11-11T22:22:46;103130.47;;;8.13;100.00
67654;BME280;54791;52.364;4.648;2022-11-11T22:25:12;103127.75;;;8.04;100.00
67654;BME280;54791;52.364;4.648;2022-11-11T22:27:38;103124.13;;;7.92;100.00
67654;BME280;54791;52.364;4.648;2022-11-11T22:30:06;103121.41;;;7.86;100.00
67654;BME280;54791;52.364;4.648;2022-11-11T22:32:32;103118.75;;;7.83;100.00
67654;BME280;54791;52.364;4.648;2022-11-11T22:34:57;103116.13;;;7.86;100.00
67654;BME280;54791;52.364;4.648;2022-11-11T22:37:23;103120.56;;;7.87;100.00
67654;BME280;54791;52.364;4.648;2022-11-11T22:39:48;103117.97;;;7.92;100.00
67654;BME280;54791;52.364;4.648;2022-11-11T22:42:14;103107.41;;;7.97;100.00
67654;BME280;54791;52.364;4.648;2022-11-11T22:44:40;103108.41;;;8.06;100.00
67654;BME280;54791;52.364;4.648;2022-11-11T22:47:06;103109.16;;;7.93;100.00
67654;BME280;54791;52.364;4.648;2022-11-11T22:49:32;103119.72;;;7.95;100.00
67654;BME280;54791;52.364;4.648;2022-11-11T22:51:57;103116.13;;;7.86;100.00
67654;BME280;54791;52.364;4.648;2022-11-11T22:54:23;103113.47;;;7.83;100.00
67654;BME280;54791;52.364;4.648;2022-11-11T22:56:49;103121.41;;;7.82;100.00
67654;BME280;54791;52.364;4.648;2022-11-11T22:59:15;103125.72;;;7.75;100.00
67654;BME280;54791;52.364;4.648;2022-11-11T23:01:41;103126.59;;;7.74;100.00
67654;BME280;54791;52.364;4.648;2022-11-11T23:04:09;103131.81;;;7.68;100.00
67654;BME280;54791;52.364;4.648;2022-11-11T23:06:37;103129.19;;;7.69;100.00
67654;BME280;54791;52.364;4.648;2022-11-11T23:09:07;103145.03;;;7.68;100.00
67654;BME280;54791;52.364;4.648;2022-11-11T23:11:35;103143.22;;;7.65;100.00
67654;BME280;54791;52.364;4.648;2022-11-11T23:14:03;103139.72;;;7.66;100.00
67654;BME280;54791;52.364;4.648;2022-11-11T23:16:30;103142.38;;;7.68;100.00
67654;BME280;54791;52.364;4.648;2022-11-11T23:18:57;103126.47;;;7.62;100.00
67654;BME280;54791;52.364;4.648;2022-11-11T23:21:24;103122.88;;;7.55;100.00
67654;BME280;54791;52.364;4.648;2022-11-11T23:23:51;103125.53;;;7.56;100.00
67654;BME280;54791;52.364;4.648;2022-11-11T23:26:21;103132.59;;;7.57;100.00
67654;BME280;54791;52.364;4.648;2022-11-11T23:28:48;103135.22;;;7.57;100.00
67654;BME280;54791;52.364;4.648;2022-11-11T23:31:17;103130.03;;;7.65;100.00
67654;BME280;54791;52.364;4.648;2022-11-11T23:33:46;103131.81;;;7.69;100.00
67654;BME280;54791;52.364;4.648;2022-11-11T23:36:14;103135.31;;;7.67;100.00
67654;BME280;54791;52.364;4.648;2022-11-11T23:38:41;103137.00;;;7.60;100.00
67654;BME280;54791;52.364;4.648;2022-11-11T23:41:07;103131.72;;;7.60;100.00
67654;BME280;54791;52.364;4.648;2022-11-11T23:43:33;103128.22;;;7.61;100.00
67654;BME280;54791;52.364;4.648;2022-11-11T23:45:59;103131.75;;;7.62;100.00
67654;BME280;54791;52.364;4.648;2022-11-11T23:48:26;103132.69;;;7.67;100.00
67654;BME280;54791;52.364;4.648;2022-11-11T23:50:53;103137.97;;;7.67;100.00
67654;BME280;54791;52.364;4.648;2022-11-11T23:53:19;103138.72;;;7.56;100.00
67654;BME280;54791;52.364;4.648;2022-11-11T23:55:45;103133.38;;;7.50;100.00
67654;BME280;54791;52.364;4.648;2022-11-11T23:58:11;103136.06;;;7.53;100.00
